Time;durP1;ratioP1;P1;durP2;ratioP2;P2;SDS_P1;SDS_P2;PMS_P1;PMS_P2;Temp;Humidity;BMP_temperature;BMP_pressure;BME280_temperature;BME280_humidity;BME280_pressure;Samples;Min_cycle;Max_cycle;Signal;HPM_P1;HPM_P2
2020/12/25 00:02:04;;;;;;;;;;;;;;;18.93;70.29;100447.72;5064262;28;1937;-51
2020/12/25 00:04:29;;;;;;;;;;;;;;;18.90;70.36;100458.69;5068847;28;1589;-52
2020/12/25 00:06:55;;;;;;;;;;;;;;;18.87;69.95;100462.53;5068471;28;1253;-50
2020/12/25 00:09:20;;;;;;;;;;;;;;;18.88;70.38;100442.78;5066637;28;1504;-50
2020/12/25 00:11:45;;;;;;;;;;;;;;;18.86;70.09;100456.31;5068875;28;1312;-50
2020/12/25 00:14:11;;;;;;;;;;;;;;;18.85;69.99;100456.47;5066216;28;1390;-50
2020/12/25 00:16:36;;;;;;;;;;;;;;;18.84;70.32;100460.09;5067315;28;1408;-50
2020/12/25 00:19:02;;;;;;;;;;;;;;;18.85;70.25;100468.00;5060839;28;1322;-51
2020/12/25 00:21:27;;;;;;;;;;;;;;;18.80;69.98;100462.25;5057370;28;1956;-51
2020/12/25 00:23:52;;;;;;;;;;;;;;;18.83;69.88;100477.19;5069931;28;1764;-51
2020/12/25 00:26:28;;;;;;;;;;;;;;;18.84;70.15;100470.81;5069782;28;1327;-50
2020/12/25 00:28:55;;;;;;;;;;;;;;;18.83;69.84;100478.03;5071273;28;1364;-51
2020/12/25 00:31:41;;;;;;;;;;;;;;;18.81;69.83;100466.59;5068416;28;1319;-51
2020/12/25 00:34:07;;;;;;;;;;;;;;;18.83;69.91;100477.19;5069976;28;2106;-50
2020/12/25 00:36:33;;;;;;;;;;;;;;;18.81;69.67;100474.63;5066442;28;1352;-50
2020/12/25 00:39:00;;;;;;;;;;;;;;;18.77;69.52;100459.81;5060519;28;1440;-50
2020/12/25 00:41:25;;;;;;;;;;;;;;;18.81;69.41;100463.94;5070563;28;1901;-50
2020/12/25 00:43:51;;;;;;;;;;;;;;;18.83;69.36;100472.66;5073081;28;2011;-51
2020/12/25 00:46:16;;;;;;;;;;;;;;;18.84;69.32;100471.69;5070087;28;1553;-51
2020/12/25 00:48:42;;;;;;;;;;;;;;;18.82;69.50;100476.34;5069115;28;1494;-51
2020/12/25 00:51:20;;;;;;;;;;;;;;;18.81;69.35;100474.63;5071423;28;1496;-51
2020/12/25 00:53:45;;;;;;;;;;;;;;;18.85;69.66;100469.84;5072196;28;1664;-50
2020/12/25 00:56:12;;;;;;;;;;;;;;;18.84;69.42;100462.78;5072914;28;1606;-51
2020/12/25 00:58:37;;;;;;;;;;;;;;;18.86;69.36;100458.13;5069527;28;1405;-51
2020/12/25 01:01:08;;;;;;;;;;;;;;;18.84;69.07;100454.75;5077426;28;1532;-50
2020/12/25 01:03:33;;;;;;;;;;;;;;;18.87;69.26;100462.53;5048680;28;2424;-51
2020/12/25 01:06:01;;;;;;;;;;;;;;;18.89;69.20;100460.53;5050687;28;1424;-50
2020/12/25 01:08:28;;;;;;;;;;;;;;;18.91;69.07;100463.09;5053688;28;1701;-50
2020/12/25 01:10:53;;;;;;;;;;;;;;;18.95;68.96;100454.59;5065623;28;1540;-51
2020/12/25 01:13:20;;;;;;;;;;;;;;;18.96;68.77;100444.72;5080532;28;1441;-51
2020/12/25 01:15:45;;;;;;;;;;;;;;;18.97;69.02;100446.44;5072226;28;1318;-50
2020/12/25 01:18:10;;;;;;;;;;;;;;;18.97;68.84;100441.06;5061751;28;1400;-50
2020/12/25 01:20:36;;;;;;;;;;;;;;;18.93;68.81;100448.56;5071212;28;1318;-51
2020/12/25 01:23:05;;;;;;;;;;;;;;;18.92;69.05;100437.97;5066484;28;1949;-50
2020/12/25 01:25:31;;;;;;;;;;;;;;;18.94;68.78;100442.22;5066681;28;1677;-50
2020/12/25 01:27:56;;;;;;;;;;;;;;;18.99;68.58;100453.34;5068987;28;1406;-50
2020/12/25 01:30:21;;;;;;;;;;;;;;;19.02;68.34;100450.38;5063994;28;1453;-51
2020/12/25 01:32:46;;;;;;;;;;;;;;;19.04;68.18;100436.84;5067975;28;1296;-50
2020/12/25 01:35:12;;;;;;;;;;;;;;;19.03;68.51;100437.81;5068096;28;1130;-50
2020/12/25 01:37:37;;;;;;;;;;;;;;;19.04;68.34;100437.69;5066184;28;1354;-50
2020/12/25 01:40:03;;;;;;;;;;;;;;;19.04;68.46;100420.78;5065475;28;1664;-51
2020/12/25 01:42:28;;;;;;;;;;;;;;;19.05;68.56;100428.63;5069157;28;2035;-51
2020/12/25 01:44:53;;;;;;;;;;;;;;;19.06;68.67;100440.22;5067529;28;1563;-51
2020/12/25 01:47:19;;;;;;;;;;;;;;;19.08;69.02;100432.88;5068393;28;1257;-51
2020/12/25 01:49:44;;;;;;;;;;;;;;;19.07;68.75;100410.56;5067409;28;1452;-51
2020/12/25 01:52:11;;;;;;;;;;;;;;;19.05;68.45;100428.63;5068482;28;1477;-51
2020/12/25 01:54:36;;;;;;;;;;;;;;;19.06;68.73;100430.34;5065812;28;1493;-51
2020/12/25 01:57:02;;;;;;;;;;;;;;;19.07;67.85;100437.38;5067714;28;1154;-50
2020/12/25 01:59:28;;;;;;;;;;;;;;;19.05;68.69;100423.28;5067852;28;1239;-50
2020/12/25 02:01:53;;;;;;;;;;;;;;;19.05;68.59;100431.31;5073141;28;1914;-50
2020/12/25 02:04:20;;;;;;;;;;;;;;;19.03;68.78;100433.28;5073337;28;1492;-50
2020/12/25 02:06:45;;;;;;;;;;;;;;;18.99;68.86;100423.84;5072549;28;1579;-50
2020/12/25 02:09:10;;;;;;;;;;;;;;;18.97;68.92;100425.84;5071551;28;1480;-50
2020/12/25 02:11:41;;;;;;;;;;;;;;;18.96;68.79;100432.19;5073227;28;1718;-51
2020/12/25 02:14:06;;;;;;;;;;;;;;;18.96;69.09;100440.25;5055120;28;1276;-50
2020/12/25 02:16:38;;;;;;;;;;;;;;;18.95;68.88;100433.16;5070483;28;1681;-51
2020/12/25 02:19:03;;;;;;;;;;;;;;;18.94;68.94;100439.53;5072943;28;1417;-50
2020/12/25 02:21:29;;;;;;;;;;;;;;;18.92;68.85;100416.53;5054758;28;1953;-50
2020/12/25 02:23:54;;;;;;;;;;;;;;;18.92;68.71;100425.44;5073708;28;1821;-50
2020/12/25 02:26:20;;;;;;;;;;;;;;;18.92;69.03;100428.13;5073474;28;1528;-50
2020/12/25 02:28:47;;;;;;;;;;;;;;;18.88;69.01;100399.94;5073344;28;1578;-50
2020/12/25 02:31:12;;;;;;;;;;;;;;;18.92;69.05;100422.75;5073538;28;1330;-50
2020/12/25 02:33:39;;;;;;;;;;;;;;;18.86;69.03;100413.44;5074134;28;1366;-50
2020/12/25 02:36:05;;;;;;;;;;;;;;;18.88;68.92;100416.84;5073285;28;1648;-50
2020/12/25 02:38:31;;;;;;;;;;;;;;;18.86;68.94;100407.22;5073039;28;1596;-50
2020/12/25 02:40:57;;;;;;;;;;;;;;;18.85;69.41;100400.19;5073984;28;1579;-49
2020/12/25 02:43:22;;;;;;;;;;;;;;;18.85;69.24;100414.44;5073355;28;1890;-50
2020/12/25 02:45:47;;;;;;;;;;;;;;;18.86;68.97;100423.31;5073936;28;1508;-50
2020/12/25 02:48:12;;;;;;;;;;;;;;;18.85;69.21;100427.81;5072855;28;1698;-50
2020/12/25 02:50:38;;;;;;;;;;;;;;;18.84;69.11;100419.91;5073237;28;1129;-50
2020/12/25 02:53:04;;;;;;;;;;;;;;;18.79;69.03;100414.13;5069683;28;1618;-49
2020/12/25 02:55:30;;;;;;;;;;;;;;;18.82;69.04;100427.25;5062322;28;1306;-50
2020/12/25 02:57:57;;;;;;;;;;;;;;;18.83;69.03;100419.09;5041600;28;1528;-50
2020/12/25 03:00:23;;;;;;;;;;;;;;;18.90;69.24;100435.44;5052980;28;1006;-50
2020/12/25 03:02:49;;;;;;;;;;;;;;;18.92;69.26;100432.59;5052913;28;1894;-49
2020/12/25 03:05:14;;;;;;;;;;;;;;;18.98;68.66;100424.00;5053616;28;1378;-50
2020/12/25 03:07:40;;;;;;;;;;;;;;;18.95;68.74;100422.44;5062025;28;1552;-49
2020/12/25 03:10:06;;;;;;;;;;;;;;;18.96;68.90;100423.28;5050339;28;1400;-50
2020/12/25 03:12:31;;;;;;;;;;;;;;;19.02;68.69;100420.03;5059222;28;1553;-50
2020/12/25 03:14:57;;;;;;;;;;;;;;;19.00;68.92;100430.91;5073526;28;889;-50
2020/12/25 03:17:22;;;;;;;;;;;;;;;19.10;68.42;100409.47;5065682;28;1611;-50
2020/12/25 03:19:48;;;;;;;;;;;;;;;19.03;68.40;100402.97;5061918;28;1755;-50
2020/12/25 03:22:13;;;;;;;;;;;;;;;18.98;68.47;100410.59;5072559;28;1882;-50
2020/12/25 03:24:38;;;;;;;;;;;;;;;19.00;68.44;100398.75;5069516;28;1684;-50
2020/12/25 03:27:03;;;;;;;;;;;;;;;19.00;68.50;100404.13;5064329;28;1768;-50
2020/12/25 03:29:29;;;;;;;;;;;;;;;19.08;68.15;100406.09;5052794;28;1739;-50
2020/12/25 03:31:54;;;;;;;;;;;;;;;19.12;67.91;100417.34;5056929;28;1809;-50
2020/12/25 03:34:19;;;;;;;;;;;;;;;19.13;68.55;100419.03;5071857;28;896;-50
2020/12/25 03:36:44;;;;;;;;;;;;;;;19.09;68.53;100402.41;5064620;28;1646;-50
2020/12/25 03:39:10;;;;;;;;;;;;;;;19.12;68.48;100422.69;5070522;28;1705;-50
2020/12/25 03:41:35;;;;;;;;;;;;;;;19.10;69.15;100403.25;5070940;28;1965;-51
2020/12/25 03:44:00;;;;;;;;;;;;;;;19.07;68.90;100418.63;5071469;28;1476;-49
2020/12/25 03:46:31;;;;;;;;;;;;;;;19.04;69.33;100410.03;5075789;28;1687;-50
2020/12/25 03:48:56;;;;;;;;;;;;;;;19.08;69.10;100412.28;5056979;28;1719;-51
2020/12/25 03:51:30;;;;;;;;;;;;;;;19.07;69.02;100413.25;5057213;28;866;-50
2020/12/25 03:53:57;;;;;;;;;;;;;;;19.02;68.91;100395.91;5070775;28;1572;-50
2020/12/25 03:56:28;;;;;;;;;;;;;;;19.01;69.10;100405.81;5076498;28;1681;-50
2020/12/25 03:58:54;;;;;;;;;;;;;;;18.92;68.72;100404.00;5058966;28;1723;-50
2020/12/25 04:01:20;;;;;;;;;;;;;;;18.92;68.97;100404.00;5080614;22;3767;-59
2020/12/25 04:03:45;;;;;;;;;;;;;;;18.92;69.36;100416.53;5049537;28;1981;-59
2020/12/25 04:06:10;;;;;;;;;;;;;;;18.91;69.16;100415.69;5042457;28;1387;-59
2020/12/25 04:08:36;;;;;;;;;;;;;;;18.92;69.04;100401.31;5055470;28;1490;-59
2020/12/25 04:11:01;;;;;;;;;;;;;;;18.87;69.03;100408.94;5038536;28;1196;-59
2020/12/25 04:13:27;;;;;;;;;;;;;;;18.87;68.99;100400.91;5055774;28;1422;-63
2020/12/25 04:15:52;;;;;;;;;;;;;;;18.89;69.08;100412.31;5038399;28;1215;-62
2020/12/25 04:18:18;;;;;;;;;;;;;;;18.87;68.93;100414.28;5056658;28;1458;-59
2020/12/25 04:20:43;;;;;;;;;;;;;;;18.90;68.61;100419.38;5057505;28;815;-59
2020/12/25 04:23:08;;;;;;;;;;;;;;;18.88;69.21;100429.41;5057508;28;1949;-59
2020/12/25 04:25:34;;;;;;;;;;;;;;;18.87;69.16;100425.84;5057505;28;1478;-62
2020/12/25 04:27:59;;;;;;;;;;;;;;;18.86;69.05;100428.66;5056433;28;1310;-62
2020/12/25 04:30:25;;;;;;;;;;;;;;;18.85;69.11;100422.47;5056888;28;1426;-59
2020/12/25 04:32:50;;;;;;;;;;;;;;;18.84;69.06;100412.75;5056974;28;1378;-62
2020/12/25 04:35:15;;;;;;;;;;;;;;;18.88;68.80;100414.16;5056908;28;1405;-62
2020/12/25 04:37:41;;;;;;;;;;;;;;;18.83;68.97;100404.84;5055924;28;1303;-59
2020/12/25 04:40:06;;;;;;;;;;;;;;;18.86;68.75;100417.94;5056702;28;1290;-62
2020/12/25 04:42:37;;;;;;;;;;;;;;;18.87;68.75;100422.31;5056098;28;1961;-59
2020/12/25 04:45:03;;;;;;;;;;;;;;;18.81;69.04;100417.53;5056765;28;1196;-62
2020/12/25 04:47:29;;;;;;;;;;;;;;;18.82;69.21;100409.38;5056352;28;1251;-59
2020/12/25 04:49:54;;;;;;;;;;;;;;;18.86;68.68;100412.59;5056728;28;1187;-61
2020/12/25 04:52:20;;;;;;;;;;;;;;;18.82;68.98;100406.69;5056047;28;1314;-59
2020/12/25 04:54:45;;;;;;;;;;;;;;;18.84;68.82;100419.91;5055165;28;1278;-59
2020/12/25 04:57:10;;;;;;;;;;;;;;;18.81;69.04;100404.16;5056006;28;1411;-62
2020/12/25 04:59:36;;;;;;;;;;;;;;;18.85;68.90;100405.56;5055722;28;1338;-59
2020/12/25 05:02:01;;;;;;;;;;;;;;;18.88;68.61;100416.84;5055115;28;1981;-59
2020/12/25 05:04:27;;;;;;;;;;;;;;;18.88;68.47;100405.28;5056248;28;1338;-60
2020/12/25 05:06:53;;;;;;;;;;;;;;;18.91;68.58;100409.50;5056168;28;1242;-62
2020/12/25 05:09:22;;;;;;;;;;;;;;;18.94;68.66;100409.19;5055989;28;1501;-62
2020/12/25 05:11:52;;;;;;;;;;;;;;;18.96;68.38;100402.72;5056110;28;1331;-62
2020/12/25 05:14:17;;;;;;;;;;;;;;;18.99;68.19;100410.47;5055933;28;1243;-62
2020/12/25 05:16:43;;;;;;;;;;;;;;;19.03;68.11;100409.19;5055652;28;1409;-62
2020/12/25 05:19:10;;;;;;;;;;;;;;;19.03;67.85;100401.13;5055865;28;1385;-59
2020/12/25 05:21:40;;;;;;;;;;;;;;;19.07;67.88;100415.94;5037977;28;1902;-62
2020/12/25 05:24:06;;;;;;;;;;;;;;;19.09;67.48;100421.16;5055740;28;1338;-62
2020/12/25 05:26:32;;;;;;;;;;;;;;;19.06;67.65;100426.81;5053885;28;1366;-59
2020/12/25 05:28:57;;;;;;;;;;;;;;;19.08;67.90;100425.69;5055085;28;1577;-62
2020/12/25 05:31:23;;;;;;;;;;;;;;;19.04;68.11;100415.41;5046999;28;1393;-59
2020/12/25 05:33:49;;;;;;;;;;;;;;;19.02;67.98;100410.19;5054526;28;1554;-62
2020/12/25 05:36:15;;;;;;;;;;;;;;;19.00;68.02;100412.16;5056072;28;836;-62
2020/12/25 05:38:46;;;;;;;;;;;;;;;18.98;68.03;100411.47;5055384;28;1459;-62
2020/12/25 05:41:11;;;;;;;;;;;;;;;18.96;67.92;100413.44;5038160;28;1188;-62
2020/12/25 05:43:37;;;;;;;;;;;;;;;18.95;68.00;100417.09;5052842;28;1949;-59
2020/12/25 05:46:02;;;;;;;;;;;;;;;18.93;67.88;100411.03;5055399;28;1514;-62
2020/12/25 05:48:27;;;;;;;;;;;;;;;18.93;68.27;100408.34;5055079;28;1454;-59
2020/12/25 05:50:53;;;;;;;;;;;;;;;18.95;68.24;100400.19;5043151;28;1497;-59
2020/12/25 05:53:19;;;;;;;;;;;;;;;18.89;68.16;100423.03;5038100;28;1463;-59
2020/12/25 05:55:45;;;;;;;;;;;;;;;18.85;68.42;100414.44;5054096;28;1458;-59
2020/12/25 05:58:14;;;;;;;;;;;;;;;18.88;68.56;100414.16;5055157;28;1478;-59
2020/12/25 06:00:40;;;;;;;;;;;;;;;18.89;68.67;100431.06;5055134;28;1371;-62
2020/12/25 06:03:07;;;;;;;;;;;;;;;18.86;68.79;100407.22;5053902;28;1963;-59
2020/12/25 06:05:34;;;;;;;;;;;;;;;18.88;68.72;100426.72;5054954;28;1568;-63
2020/12/25 06:07:59;;;;;;;;;;;;;;;18.90;68.76;100413.16;5054543;28;1525;-62
2020/12/25 06:10:26;;;;;;;;;;;;;;;18.86;68.67;100423.31;5055144;28;1549;-59
2020/12/25 06:12:52;;;;;;;;;;;;;;;18.85;69.17;100422.47;5055131;28;1478;-59
2020/12/25 06:15:19;;;;;;;;;;;;;;;18.80;68.90;100424.75;5055205;28;1482;-59
2020/12/25 06:17:56;;;;;;;;;;;;;;;18.82;69.15;100412.06;5055074;28;1482;-59
2020/12/25 06:20:25;;;;;;;;;;;;;;;18.84;68.71;100430.63;5055003;28;1524;-59
2020/12/25 06:22:50;;;;;;;;;;;;;;;18.80;68.70;100423.88;5055246;28;1881;-59
2020/12/25 06:25:16;;;;;;;;;;;;;;;18.79;68.83;100417.69;5055005;28;1168;-62
2020/12/25 06:28:08;;;;;;;;;;;;;;;18.82;68.77;100424.56;5054910;28;1533;-62
2020/12/25 06:30:34;;;;;;;;;;;;;;;18.80;68.87;100439.94;5052702;28;1411;-59
2020/12/25 06:33:00;;;;;;;;;;;;;;;18.78;68.73;100428.50;5053797;28;1537;-62
2020/12/25 06:35:28;;;;;;;;;;;;;;;18.79;68.81;100433.75;5053797;28;1482;-59
2020/12/25 06:37:53;;;;;;;;;;;;;;;18.80;68.55;100434.59;5036130;28;1319;-62
2020/12/25 06:40:22;;;;;;;;;;;;;;;18.82;68.46;100443.34;5054716;28;1276;-62
2020/12/25 06:42:47;;;;;;;;;;;;;;;18.84;68.58;100446.72;5054491;28;1961;-62
2020/12/25 06:45:13;;;;;;;;;;;;;;;18.80;68.69;100440.81;5052294;28;1357;-59
2020/12/25 06:47:39;;;;;;;;;;;;;;;18.81;68.56;100439.81;5054224;28;1322;-62
2020/12/25 06:50:12;;;;;;;;;;;;;;;18.78;68.31;100441.91;5054023;28;1346;-62
2020/12/25 06:52:53;;;;;;;;;;;;;;;18.78;68.94;100436.53;4696911;28;10000391;-62
2020/12/25 06:55:20;;;;;;;;;;;;;;;18.80;68.79;100450.66;5038814;28;1543;-59
2020/12/25 06:57:46;;;;;;;;;;;;;;;18.76;68.56;100428.66;5046118;28;1681;-63
2020/12/25 07:00:11;;;;;;;;;;;;;;;18.81;68.64;100438.97;5048470;28;1508;-59
2020/12/25 07:02:39;;;;;;;;;;;;;;;18.81;68.20;100428.25;5046751;28;1989;-63
2020/12/25 07:05:05;;;;;;;;;;;;;;;18.88;68.04;100437.44;5044300;28;1460;-59
2020/12/25 07:07:34;;;;;;;;;;;;;;;18.92;68.15;100432.59;5048397;28;1391;-58
2020/12/25 07:10:07;;;;;;;;;;;;;;;18.99;68.22;100423.03;5026849;28;1188;-62
2020/12/25 07:12:33;;;;;;;;;;;;;;;19.04;67.79;100432.31;5027866;28;1551;-59
2020/12/25 07:14:58;;;;;;;;;;;;;;;19.03;69.14;100427.09;5042503;28;1408;-62
2020/12/25 07:17:23;;;;;;;;;;;;;;;19.14;68.61;100434.13;5040652;28;1507;-59
2020/12/25 07:19:49;;;;;;;;;;;;;;;19.09;70.78;100431.88;5032886;28;1178;-59
2020/12/25 07:22:14;;;;;;;;;;;;;;;19.13;69.81;100432.44;5041764;28;1938;-59
2020/12/25 07:24:41;;;;;;;;;;;;;;;19.16;68.88;100446.41;5044171;28;1507;-58
2020/12/25 07:27:07;;;;;;;;;;;;;;;19.14;69.85;100436.78;5035515;28;1184;-61
2020/12/25 07:29:33;;;;;;;;;;;;;;;19.15;69.98;100444.69;5037644;28;1401;-61
2020/12/25 07:31:58;;;;;;;;;;;;;;;19.10;69.94;100441.63;5035771;28;1444;-58
2020/12/25 07:34:24;;;;;;;;;;;;;;;19.11;69.73;100437.09;5037839;28;1491;-58
2020/12/25 07:36:51;;;;;;;;;;;;;;;19.07;69.85;100432.00;5043119;28;1128;-61
2020/12/25 07:39:16;;;;;;;;;;;;;;;19.08;70.51;100431.03;5041687;28;1597;-61
2020/12/25 07:41:42;;;;;;;;;;;;;;;19.06;70.48;100427.66;5039211;28;1995;-59
2020/12/25 07:44:07;;;;;;;;;;;;;;;19.07;70.70;100432.00;5040386;28;1456;-59
2020/12/25 07:46:33;;;;;;;;;;;;;;;19.11;70.54;100426.38;5032609;28;1381;-59
2020/12/25 07:49:00;;;;;;;;;;;;;;;19.05;70.63;100415.25;5037551;28;1488;-58
2020/12/25 07:51:25;;;;;;;;;;;;;;;19.06;70.75;100426.81;5012117;28;1165;-58
2020/12/25 07:53:51;;;;;;;;;;;;;;;19.07;70.69;100423.13;5032570;28;2228;-58
2020/12/25 07:56:19;;;;;;;;;;;;;;;19.12;70.86;100428.94;5045691;28;1377;-57
2020/12/25 07:58:46;;;;;;;;;;;;;;;19.20;70.64;100426.38;5038651;28;1500;-61
2020/12/25 08:01:12;;;;;;;;;;;;;;;19.33;70.32;100415.31;5031278;28;1538;-59
2020/12/25 08:03:38;;;;;;;;;;;;;;;19.39;70.32;100420.06;5036706;28;1980;-63
2020/12/25 08:06:03;;;;;;;;;;;;;;;19.32;70.34;100428.84;5039501;28;1415;-63
2020/12/25 08:08:29;;;;;;;;;;;;;;;19.21;70.80;100421.84;5040071;28;1507;-63
2020/12/25 08:10:55;;;;;;;;;;;;;;;19.12;71.12;100420.03;5033286;28;1414;-59
2020/12/25 08:13:20;;;;;;;;;;;;;;;19.05;70.99;100412.56;5037088;28;1332;-63
2020/12/25 08:15:46;;;;;;;;;;;;;;;19.02;71.07;100420.91;5036792;28;1429;-63
2020/12/25 08:18:11;;;;;;;;;;;;;;;19.01;71.12;100432.59;5041160;28;1456;-63
2020/12/25 08:20:36;;;;;;;;;;;;;;;18.99;70.96;100423.03;5041807;28;1399;-63
2020/12/25 08:23:03;;;;;;;;;;;;;;;19.00;71.07;100420.19;5038130;28;1959;-63
2020/12/25 08:25:29;;;;;;;;;;;;;;;19.04;70.96;100426.97;5038836;28;1452;-58
2020/12/25 08:27:55;;;;;;;;;;;;;;;19.04;70.76;100421.59;5037696;28;1484;-63
2020/12/25 08:30:22;;;;;;;;;;;;;;;19.01;70.98;100408.47;5028539;28;1585;-59
2020/12/25 08:32:47;;;;;;;;;;;;;;;19.05;70.85;100409.88;5048444;28;1259;-60
2020/12/25 08:35:16;;;;;;;;;;;;;;;19.05;70.76;100411.72;5041282;28;1453;-58
2020/12/25 08:37:51;;;;;;;;;;;;;;;19.10;70.59;100411.28;5045811;28;1208;-59
2020/12/25 08:40:17;;;;;;;;;;;;;;;19.05;70.51;100412.56;5044629;28;1458;-58
2020/12/25 08:42:42;;;;;;;;;;;;;;;19.10;70.19;100424.69;5046489;28;1890;-63
2020/12/25 08:45:08;;;;;;;;;;;;;;;19.05;70.29;100409.88;5048511;28;1335;-58
2020/12/25 08:47:33;;;;;;;;;;;;;;;19.10;70.34;100409.47;5031864;28;1318;-58
2020/12/25 08:49:59;;;;;;;;;;;;;;;19.10;70.52;100404.09;5049974;28;1363;-62
2020/12/25 08:52:25;;;;;;;;;;;;;;;19.14;70.77;100404.63;5045428;28;1438;-63
2020/12/25 08:54:59;;;;;;;;;;;;;;;19.16;70.57;100399.97;5042364;28;1246;-58
2020/12/25 08:57:25;;;;;;;;;;;;;;;19.15;70.44;100390.25;5050635;28;1357;-58
2020/12/25 09:00:11;;;;;;;;;;;;;;;19.21;70.45;100403.06;5045402;28;1286;-59
2020/12/25 09:02:36;;;;;;;;;;;;;;;19.13;70.65;100381.53;5058993;28;2016;-58
2020/12/25 09:05:02;;;;;;;;;;;;;;;19.14;70.46;100386.75;5048236;28;1208;-62
2020/12/25 09:07:27;;;;;;;;;;;;;;;19.12;70.35;100369.09;5046737;28;1231;-58
2020/12/25 09:09:52;;;;;;;;;;;;;;;19.17;73.87;100364.16;5046917;28;1342;-62
2020/12/25 09:12:18;;;;;;;;;;;;;;;19.16;74.59;100355.28;5050049;28;1357;-62
2020/12/25 09:14:43;;;;;;;;;;;;;;;19.13;76.00;100349.34;5045447;28;1510;-63
2020/12/25 09:17:09;;;;;;;;;;;;;;;19.14;75.21;100345.66;5043700;28;1097;-58
2020/12/25 09:19:34;;;;;;;;;;;;;;;19.10;75.47;100353.19;5038366;28;10783;-58
2020/12/25 09:21:59;;;;;;;;;;;;;;;19.11;75.46;100343.28;5044783;28;1937;-58
2020/12/25 09:24:25;;;;;;;;;;;;;;;19.05;75.29;100326.81;5041137;28;1199;-63
2020/12/25 09:26:50;;;;;;;;;;;;;;;19.07;75.43;100340.91;5041668;28;1124;-63
2020/12/25 09:29:17;;;;;;;;;;;;;;;19.08;74.74;100347.97;5042235;28;1104;-58
2020/12/25 09:31:43;;;;;;;;;;;;;;;19.17;73.68;100342.72;5040134;28;1287;-58
2020/12/25 09:34:09;;;;;;;;;;;;;;;19.18;73.80;100347.06;5042471;28;1247;-61
2020/12/25 09:36:34;;;;;;;;;;;;;;;19.24;73.97;100346.50;5047710;28;1554;-58
2020/12/25 09:38:59;;;;;;;;;;;;;;;19.28;73.56;100354.09;5049547;28;1320;-62
2020/12/25 09:41:25;;;;;;;;;;;;;;;19.27;66.82;100338.16;5048055;28;1283;-57
2020/12/25 09:43:50;;;;;;;;;;;;;;;19.30;72.74;100324.47;5045791;28;2018;-57
2020/12/25 09:46:15;;;;;;;;;;;;;;;19.32;73.16;100318.94;5043550;28;1160;-57
2020/12/25 09:48:41;;;;;;;;;;;;;;;19.35;73.37;100321.31;5042770;28;1244;-63
2020/12/25 09:51:06;;;;;;;;;;;;;;;19.39;73.21;100325.41;5038780;28;1454;-60
2020/12/25 09:53:31;;;;;;;;;;;;;;;19.38;72.73;100321.88;5042281;28;1598;-58
2020/12/25 09:55:57;;;;;;;;;;;;;;;19.24;73.35;100303.63;5041772;28;1613;-58
2020/12/25 09:58:22;;;;;;;;;;;;;;;19.27;72.84;100309.50;5042486;28;1352;-58
2020/12/25 10:00:47;;;;;;;;;;;;;;;19.42;72.23;100299.13;5050245;28;1406;-58
2020/12/25 10:03:13;;;;;;;;;;;;;;;19.41;72.60;100296.59;5048957;28;1976;-68
2020/12/25 10:05:38;;;;;;;;;;;;;;;19.41;71.99;100297.44;5048307;28;1328;-63
2020/12/25 10:08:03;;;;;;;;;;;;;;;19.43;72.78;100302.66;5043823;28;1518;-57
2020/12/25 10:10:29;;;;;;;;;;;;;;;19.38;72.49;100304.97;5043007;28;1418;-56
2020/12/25 10:12:54;;;;;;;;;;;;;;;19.37;72.79;100288.00;5045696;28;1627;-60
2020/12/25 10:15:20;;;;;;;;;;;;;;;19.33;73.05;100300.03;5043548;28;1374;-62
2020/12/25 10:17:45;;;;;;;;;;;;;;;18.65;72.23;100305.59;5048410;28;1420;-61
2020/12/25 10:20:11;;;;;;;;;;;;;;;18.80;72.60;100295.28;5040125;28;1880;-61
2020/12/25 10:22:36;;;;;;;;;;;;;;;18.90;73.25;100285.41;5045523;28;1898;-58
2020/12/25 10:25:02;;;;;;;;;;;;;;;18.93;73.08;100290.47;5047960;28;1602;-61
2020/12/25 10:27:27;;;;;;;;;;;;;;;18.99;72.76;100289.88;5044478;28;1396;-63
2020/12/25 10:29:53;;;;;;;;;;;;;;;19.00;72.79;100286.22;5048910;28;1339;-63
2020/12/25 10:32:18;;;;;;;;;;;;;;;19.04;72.42;100271.53;5044336;28;1142;-63
2020/12/25 10:34:44;;;;;;;;;;;;;;;19.03;72.49;100277.88;5047959;28;1332;-58
2020/12/25 10:37:09;;;;;;;;;;;;;;;19.04;72.69;100260.81;5046962;28;1331;-59
2020/12/25 10:39:35;;;;;;;;;;;;;;;19.05;72.76;100267.00;5046312;28;1260;-64
2020/12/25 10:42:00;;;;;;;;;;;;;;;19.10;71.72;100247.78;5047700;28;1948;-59
2020/12/25 10:44:25;;;;;;;;;;;;;;;19.08;72.39;100256.84;5049465;28;1354;-59
2020/12/25 10:46:51;;;;;;;;;;;;;;;19.11;72.59;100249.50;5045978;28;1399;-58
2020/12/25 10:49:16;;;;;;;;;;;;;;;19.07;72.64;100243.59;5047514;28;1435;-60
2020/12/25 10:51:45;;;;;;;;;;;;;;;19.07;72.63;100233.69;5044891;28;1731;-59
2020/12/25 10:54:11;;;;;;;;;;;;;;;19.12;72.69;100227.91;5049597;28;1518;-57
2020/12/25 10:56:36;;;;;;;;;;;;;;;19.11;72.39;100244.13;5023888;28;2274;-60
2020/12/25 10:59:02;;;;;;;;;;;;;;;19.10;73.00;100243.31;5046947;28;1152;-60
2020/12/25 11:01:28;;;;;;;;;;;;;;;19.16;72.68;100253.41;5035885;28;1325;-59
2020/12/25 11:03:54;;;;;;;;;;;;;;;19.11;72.65;100233.41;5032341;28;1925;-61
2020/12/25 11:06:28;;;;;;;;;;;;;;;19.17;72.49;100243.53;5040692;28;1369;-62
2020/12/25 11:08:54;;;;;;;;;;;;;;;19.17;72.12;100217.56;5031238;28;1554;-62
2020/12/25 11:11:26;;;;;;;;;;;;;;;19.20;72.17;100232.50;5038411;28;1409;-59
2020/12/25 11:13:52;;;;;;;;;;;;;;;19.21;71.74;100221.63;5028236;28;1372;-66
2020/12/25 11:16:25;;;;;;;;;;;;;;;19.22;71.59;100225.19;5033832;28;1319;-60
2020/12/25 11:18:50;;;;;;;;;;;;;;;19.19;71.86;100237.03;5043005;28;1521;-64
2020/12/25 11:21:23;;;;;;;;;;;;;;;19.18;71.92;100223.75;5043147;28;1374;-57
2020/12/25 11:23:50;;;;;;;;;;;;;;;19.23;71.84;100221.50;5046162;28;1893;-57
2020/12/25 11:26:19;;;;;;;;;;;;;;;19.24;72.01;100220.50;5042172;28;1344;-61
2020/12/25 11:28:44;;;;;;;;;;;;;;;19.20;72.20;100213.72;5045222;28;1427;-57
2020/12/25 11:31:11;;;;;;;;;;;;;;;19.23;72.11;100221.50;5043697;28;1367;-57
2020/12/25 11:33:36;;;;;;;;;;;;;;;19.22;72.20;100227.88;5047687;28;1109;-57
2020/12/25 11:36:01;;;;;;;;;;;;;;;19.22;72.59;100230.53;5043064;28;1550;-59
2020/12/25 11:38:27;;;;;;;;;;;;;;;19.22;72.32;100214.47;5047867;28;1289;-57
2020/12/25 11:40:52;;;;;;;;;;;;;;;19.18;72.49;100221.94;5041772;28;1330;-57
2020/12/25 11:43:17;;;;;;;;;;;;;;;19.13;72.40;100220.72;5036268;28;1906;-61
2020/12/25 11:45:42;;;;;;;;;;;;;;;19.10;72.41;100226.34;5039322;28;1336;-57
2020/12/25 11:48:08;;;;;;;;;;;;;;;19.09;72.49;100225.53;5047471;28;1290;-61
2020/12/25 11:50:33;;;;;;;;;;;;;;;19.07;72.63;100228.34;5043830;28;1327;-61
2020/12/25 11:52:59;;;;;;;;;;;;;;;19.07;72.84;100225.66;5044742;28;1390;-61
2020/12/25 11:55:24;;;;;;;;;;;;;;;19.06;72.58;100223.16;5043279;28;1161;-57
2020/12/25 11:57:49;;;;;;;;;;;;;;;19.05;72.58;100230.31;5046638;28;1717;-61
2020/12/25 12:00:15;;;;;;;;;;;;;;;19.02;72.62;100225.28;5035163;28;1454;-61
2020/12/25 12:02:40;;;;;;;;;;;;;;;19.00;72.52;100221.91;5020865;28;1995;-61
2020/12/25 12:05:05;;;;;;;;;;;;;;;19.06;72.16;100217.78;5032722;28;1518;-61
2020/12/25 12:07:31;;;;;;;;;;;;;;;19.02;72.33;100225.28;5042048;28;1578;-58
2020/12/25 12:09:56;;;;;;;;;;;;;;;19.05;72.11;100221.44;5036807;28;1317;-57
2020/12/25 12:12:21;;;;;;;;;;;;;;;19.03;72.00;100210.88;5031270;28;1645;-60
2020/12/25 12:14:47;;;;;;;;;;;;;;;19.08;72.19;100205.09;5039407;28;1367;-57
2020/12/25 12:17:12;;;;;;;;;;;;;;;19.16;72.10;100226.63;5039020;28;1468;-57
2020/12/25 12:19:37;;;;;;;;;;;;;;;19.10;71.98;100215.63;5029922;28;1316;-57
2020/12/25 12:22:03;;;;;;;;;;;;;;;19.08;72.08;100213.97;5031651;28;1897;-58
2020/12/25 12:24:28;;;;;;;;;;;;;;;19.15;72.46;100205.31;5028372;28;1384;-61
2020/12/25 12:26:54;;;;;;;;;;;;;;;19.11;72.12;100210.13;5035006;28;1423;-58
2020/12/25 12:29:19;;;;;;;;;;;;;;;19.10;72.39;100218.31;5039391;28;1455;-61
2020/12/25 12:31:44;;;;;;;;;;;;;;;19.11;72.51;100223.53;5035550;28;1589;-61
2020/12/25 12:34:10;;;;;;;;;;;;;;;19.11;72.42;100212.81;5035483;28;1491;-57
2020/12/25 12:36:35;;;;;;;;;;;;;;;19.13;72.36;100218.88;5020479;28;1462;-58
2020/12/25 12:39:00;;;;;;;;;;;;;;;19.13;72.35;100215.34;5029189;28;1368;-61
2020/12/25 12:41:27;;;;;;;;;;;;;;;19.11;72.56;100215.50;5031469;28;1604;-58
2020/12/25 12:43:52;;;;;;;;;;;;;;;19.10;74.08;100200.41;5024849;28;1890;-58